createdAt,value
2023-04-30T00:00:08.450Z,100405.09
2023-04-30T00:02:38.810Z,100405.91
2023-04-30T00:05:06.355Z,100409.31
2023-04-30T00:07:33.919Z,100425.09
2023-04-30T00:10:00.969Z,100421.59
2023-04-30T00:12:31.153Z,100423.34
2023-04-30T00:14:58.171Z,100428.38
2023-04-30T00:17:25.302Z,100426.53
2023-04-30T00:19:52.782Z,100410.56
2023-04-30T00:22:20.074Z,100420.06
2023-04-30T00:24:47.129Z,100433.22
2023-04-30T00:27:14.395Z,100434.81
2023-04-30T00:29:41.462Z,100435.31
2023-04-30T00:32:08.706Z,100442.16
2023-04-30T00:34:35.796Z,100427.09
2023-04-30T00:37:03.991Z,100447.59
2023-04-30T00:39:31.153Z,100446.47
2023-04-30T00:41:58.213Z,100449.81
2023-04-30T00:44:25.236Z,100420.75
2023-04-30T00:46:52.340Z,100444.47
2023-04-30T00:49:19.542Z,100449.50
2023-04-30T00:51:46.801Z,100448.50
2023-04-30T00:54:14.660Z,100442.28
2023-04-30T00:56:41.881Z,100441.16
2023-04-30T00:59:09.393Z,100420.25
2023-04-30T01:01:37.688Z,100398.13
2023-04-30T01:04:10.880Z,100427.38
2023-04-30T01:06:43.739Z,100444.84
2023-04-30T01:09:10.921Z,100439.59
2023-04-30T01:11:56.238Z,100443.06
2023-04-30T01:14:58.856Z,100439.59
2023-04-30T01:17:52.824Z,100429.91
2023-04-30T01:20:20.255Z,100454.78
2023-04-30T01:22:52.257Z,100447.81
2023-04-30T01:25:40.759Z,100440.78
2023-04-30T01:28:10.031Z,100424.69
2023-04-30T01:30:40.920Z,100448.38
2023-04-30T01:33:08.497Z,100387.56
2023-04-30T01:35:53.772Z,100440.53
2023-04-30T01:38:29.941Z,100449.94
2023-04-30T01:41:08.549Z,100457.56
2023-04-30T01:43:38.470Z,100457.47
2023-04-30T01:46:11.882Z,100454.78
2023-04-30T01:48:54.782Z,100452.34
2023-04-30T01:51:28.896Z,100450.41
2023-04-30T01:54:00.778Z,100437.13
2023-04-30T01:56:41.486Z,100427.38
2023-04-30T01:59:09.767Z,100452.81
2023-04-30T02:01:37.695Z,100452.72
2023-04-30T02:04:05.052Z,100435.06
2023-04-30T02:06:33.113Z,100391.94
2023-04-30T02:09:05.486Z,100449.09
2023-04-30T02:11:32.925Z,100422.91
2023-04-30T02:14:00.150Z,100442.28
2023-04-30T02:16:27.481Z,100440.59
2023-04-30T02:18:54.550Z,100422.22
2023-04-30T02:21:21.640Z,100432.75
2023-04-30T02:23:48.947Z,100428.22
2023-04-30T02:26:16.146Z,100434.09
2023-04-30T02:28:43.264Z,100412.16
2023-04-30T02:31:11.115Z,100409.59
2023-04-30T02:33:38.190Z,100418.50
2023-04-30T02:36:05.637Z,100382.34
2023-04-30T02:38:32.628Z,100426.44
2023-04-30T02:40:59.653Z,100424.81
2023-04-30T02:43:26.716Z,100419.59
2023-04-30T02:45:53.784Z,100389.00
2023-04-30T02:48:20.910Z,100390.66
2023-04-30T02:50:47.924Z,100404.69
2023-04-30T02:53:15.085Z,100406.25
2023-04-30T02:55:42.095Z,100395.63
2023-04-30T02:58:09.574Z,100402.66
2023-04-30T03:00:36.604Z,100407.13
2023-04-30T03:03:04.009Z,100371.59
2023-04-30T03:05:31.179Z,100401.91
2023-04-30T03:07:58.163Z,100404.84
2023-04-30T03:10:25.574Z,100347.97
2023-04-30T03:12:53.998Z,100382.34
2023-04-30T03:15:21.094Z,100407.94
2023-04-30T03:17:48.173Z,100403.97
2023-04-30T03:20:15.261Z,100409.66
2023-04-30T03:22:42.302Z,100408.41
2023-04-30T03:25:10.799Z,100385.22
2023-04-30T03:27:37.975Z,100397.19
2023-04-30T03:30:05.914Z,100396.59
2023-04-30T03:32:33.103Z,100401.09
2023-04-30T03:35:00.386Z,100403.03
2023-04-30T03:37:27.405Z,100398.94
2023-04-30T03:39:54.618Z,100367.22
2023-04-30T03:42:21.789Z,100383.31
2023-04-30T03:44:48.844Z,100380.31
2023-04-30T03:47:15.963Z,100343.50
2023-04-30T03:49:43.776Z,100370.63
2023-04-30T03:52:11.346Z,100381.47
2023-04-30T03:54:38.606Z,100372.38
2023-04-30T03:57:07.948Z,100354.91
2023-04-30T03:59:35.271Z,100363.66
2023-04-30T04:02:02.384Z,100368.59
2023-04-30T04:04:30.396Z,100365.75
2023-04-30T04:06:58.641Z,100365.22
2023-04-30T04:09:25.672Z,100356.25
2023-04-30T04:11:52.656Z,100354.22
2023-04-30T04:14:19.625Z,100362.38
2023-04-30T04:16:47.376Z,100362.53
2023-04-30T04:19:14.560Z,100338.16
2023-04-30T04:21:41.693Z,100343.53
2023-04-30T04:24:14.507Z,100363.22
2023-04-30T04:26:41.729Z,100352.31
2023-04-30T04:29:10.667Z,100351.94
2023-04-30T04:31:38.893Z,100360.19
2023-04-30T04:34:05.993Z,100352.63
2023-04-30T04:36:34.316Z,100309.03
2023-04-30T04:39:02.399Z,100353.75
2023-04-30T04:41:30.382Z,100354.78
2023-04-30T04:43:57.796Z,100342.53
2023-04-30T04:46:26.193Z,100347.81
2023-04-30T04:48:53.414Z,100351.28
2023-04-30T04:51:20.774Z,100313.63
2023-04-30T04:53:48.525Z,100354.78
2023-04-30T04:56:15.934Z,100353.13
2023-04-30T04:58:44.639Z,100341.50
2023-04-30T05:01:12.059Z,100355.47
2023-04-30T05:03:39.240Z,100351.84
2023-04-30T05:06:06.472Z,100352.78
2023-04-30T05:08:33.576Z,100358.72
2023-04-30T05:11:01.018Z,100355.03
2023-04-30T05:13:28.103Z,100348.44
2023-04-30T05:15:55.616Z,100353.06
2023-04-30T05:18:22.691Z,100324.91
2023-04-30T05:20:49.922Z,100340.03
2023-04-30T05:23:17.079Z,100350.59
2023-04-30T05:25:44.278Z,100344.81
2023-04-30T05:28:11.796Z,100337.97
2023-04-30T05:30:38.864Z,100335.56
2023-04-30T05:33:05.902Z,100331.19
2023-04-30T05:35:36.179Z,100334.81
2023-04-30T05:38:04.011Z,100307.09
2023-04-30T05:40:31.224Z,100329.50
2023-04-30T05:42:58.369Z,100322.66
2023-04-30T05:45:25.484Z,100335.94
2023-04-30T05:47:52.679Z,100328.25
2023-04-30T05:50:20.152Z,100310.00
2023-04-30T05:52:47.161Z,100325.78
2023-04-30T05:55:14.179Z,100318.06
2023-04-30T05:57:41.144Z,100317.25
2023-04-30T06:00:08.973Z,100328.50
2023-04-30T06:02:41.899Z,100321.50
2023-04-30T06:05:09.329Z,100307.66
2023-04-30T06:07:36.918Z,100310.44
2023-04-30T06:10:04.372Z,100328.97
2023-04-30T06:12:33.947Z,100279.38
2023-04-30T06:15:01.138Z,100340.94
2023-04-30T06:17:28.369Z,100346.56
2023-04-30T06:19:55.770Z,100334.53
2023-04-30T06:22:23.077Z,100333.81
2023-04-30T06:24:50.077Z,100334.59
2023-04-30T06:27:17.103Z,100338.16
2023-04-30T06:29:44.117Z,100341.63
2023-04-30T06:32:11.153Z,100323.94
2023-04-30T06:34:38.692Z,100337.78
2023-04-30T06:37:06.050Z,100337.88
2023-04-30T06:39:33.091Z,100345.91
2023-04-30T06:42:00.116Z,100330.25
2023-04-30T06:44:28.751Z,100345.84
2023-04-30T06:46:55.905Z,100331.84
2023-04-30T06:49:22.982Z,100324.66
2023-04-30T06:51:50.184Z,100280.16
2023-04-30T06:54:17.265Z,100305.75
2023-04-30T06:56:45.245Z,100313.72
2023-04-30T06:59:12.423Z,100318.13
2023-04-30T07:01:39.552Z,100307.63
2023-04-30T07:04:07.242Z,100307.63
2023-04-30T07:06:34.391Z,100284.94
2023-04-30T07:09:02.153Z,100292.94
2023-04-30T07:11:29.331Z,100288.34
2023-04-30T07:13:56.980Z,100284.03
2023-04-30T07:16:26.096Z,100289.31
2023-04-30T07:18:53.192Z,100286.75
2023-04-30T07:21:20.239Z,100281.50
2023-04-30T07:23:48.794Z,100271.16
2023-04-30T07:26:16.062Z,100277.38
2023-04-30T07:28:43.083Z,100272.16
2023-04-30T07:31:10.130Z,100235.44
2023-04-30T07:33:37.207Z,100267.97
2023-04-30T07:36:04.447Z,100252.09
2023-04-30T07:38:31.542Z,100267.91
2023-04-30T07:40:58.550Z,100258.44
2023-04-30T07:43:25.873Z,100251.47
2023-04-30T07:45:54.422Z,100254.03
2023-04-30T07:48:22.243Z,100252.19
2023-04-30T07:50:50.751Z,100230.31
2023-04-30T07:53:20.032Z,100212.88
2023-04-30T07:55:47.653Z,100232.19
2023-04-30T07:58:14.735Z,100207.81
2023-04-30T08:00:41.773Z,100207.66
2023-04-30T08:03:09.138Z,100194.66
2023-04-30T08:05:36.413Z,100185.91
2023-04-30T08:08:04.153Z,100182.38
2023-04-30T08:10:32.131Z,100188.47
2023-04-30T08:12:59.496Z,100185.00
2023-04-30T08:17:54.162Z,100174.56
2023-04-30T08:20:23.704Z,100173.63
2023-04-30T08:22:51.391Z,100167.59
2023-04-30T08:25:18.389Z,100158.84
2023-04-30T08:27:46.772Z,100149.16
2023-04-30T08:30:13.926Z,100136.19
2023-04-30T08:32:41.606Z,100135.25
2023-04-30T08:35:09.646Z,100131.78
2023-04-30T08:37:36.817Z,100075.97
2023-04-30T08:40:04.849Z,100130.03
2023-04-30T08:42:36.787Z,100109.13
2023-04-30T08:45:05.109Z,100133.47
2023-04-30T08:47:33.411Z,100118.69
2023-04-30T08:50:01.015Z,100116.94
2023-04-30T08:52:30.162Z,100108.19
2023-04-30T08:54:58.999Z,100118.50
2023-04-30T08:57:26.512Z,100103.69
2023-04-30T08:59:54.816Z,100102.94
2023-04-30T09:02:22.137Z,100099.34
2023-04-30T09:04:49.695Z,100088.16
2023-04-30T09:07:18.511Z,100085.53
2023-04-30T09:09:45.534Z,100083.81
2023-04-30T09:12:15.234Z,100070.75
2023-04-30T09:15:04.760Z,100068.16
2023-04-30T09:17:34.487Z,100056.81
2023-04-30T09:20:12.491Z,100060.28
2023-04-30T09:22:41.486Z,100047.03
2023-04-30T09:25:09.972Z,100054.97
2023-04-30T09:27:37.246Z,100045.44
2023-04-30T09:30:04.892Z,100038.50
2023-04-30T09:32:32.827Z,100041.16
2023-04-30T09:35:00.044Z,100041.16
2023-04-30T09:37:38.341Z,100033.34
2023-04-30T09:40:06.176Z,99992.38
2023-04-30T09:42:33.372Z,100030.81
2023-04-30T09:45:00.523Z,100026.44
2023-04-30T09:47:30.846Z,100024.66
2023-04-30T09:50:00.288Z,100030.72
2023-04-30T09:52:27.482Z,100021.13
2023-04-30T09:54:54.560Z,100012.44
2023-04-30T09:57:23.954Z,100008.94
2023-04-30T09:59:53.487Z,100007.22
2023-04-30T10:02:23.619Z,99997.66
2023-04-30T10:04:56.654Z,99991.44
2023-04-30T10:07:29.728Z,100007.16
2023-04-30T10:10:07.159Z,99947.84
2023-04-30T10:12:56.504Z,100002.88
2023-04-30T10:15:28.642Z,100001.09
2023-04-30T10:18:07.230Z,99975.84
2023-04-30T10:20:39.336Z,100006.34
2023-04-30T10:23:07.396Z,99995.81
2023-04-30T10:25:34.635Z,100000.13
2023-04-30T10:28:03.953Z,100007.09
2023-04-30T10:30:32.973Z,100018.41
2023-04-30T10:33:10.829Z,100019.28
2023-04-30T10:35:58.122Z,100017.69
2023-04-30T10:38:28.246Z,100012.41
2023-04-30T10:41:00.845Z,99990.66
2023-04-30T10:43:30.628Z,100010.78
2023-04-30T10:45:58.921Z,100006.34
2023-04-30T10:48:27.419Z,100015.09
2023-04-30T10:50:59.170Z,100001.19
2023-04-30T10:53:28.711Z,100000.31
2023-04-30T10:56:00.832Z,99993.34
2023-04-30T10:58:31.257Z,100000.31
2023-04-30T11:01:15.885Z,100002.97
2023-04-30T11:04:03.687Z,99951.50
2023-04-30T11:07:09.881Z,99998.75
2023-04-30T11:09:42.890Z,100007.41
2023-04-30T11:12:28.602Z,99994.31
2023-04-30T11:15:06.749Z,100006.53
2023-04-30T11:17:34.032Z,100002.19
2023-04-30T11:20:03.580Z,99994.38
2023-04-30T11:22:36.477Z,99982.22
2023-04-30T11:25:11.105Z,99974.44
2023-04-30T11:27:41.130Z,99957.06
2023-04-30T11:30:16.366Z,99943.16
2023-04-30T11:32:50.331Z,99949.25
2023-04-30T11:35:19.908Z,99942.28
2023-04-30T11:37:48.487Z,99914.44
2023-04-30T11:40:16.137Z,99919.63
2023-04-30T11:42:46.180Z,99913.59
2023-04-30T11:45:18.149Z,99902.28
2023-04-30T11:47:46.457Z,99891.00
2023-04-30T11:50:19.602Z,99904.06
2023-04-30T11:52:51.260Z,99910.13
2023-04-30T11:55:21.565Z,99911.88
2023-04-30T11:57:50.445Z,99892.72
2023-04-30T12:00:22.551Z,99888.38
2023-04-30T12:02:50.471Z,99905.81
2023-04-30T12:05:23.249Z,99904.09
2023-04-30T12:07:52.501Z,99906.69
2023-04-30T12:10:20.198Z,99901.50
2023-04-30T12:12:51.937Z,99884.97
2023-04-30T12:15:28.131Z,99878.84
2023-04-30T12:17:57.766Z,99884.97
2023-04-30T12:20:28.277Z,99845.78
2023-04-30T12:22:56.222Z,99869.31
2023-04-30T12:25:23.910Z,99877.13
2023-04-30T12:27:53.362Z,99878.88
2023-04-30T12:30:27.031Z,99877.13
2023-04-30T12:32:57.889Z,99876.25
2023-04-30T12:35:28.069Z,99865.75
2023-04-30T12:38:04.660Z,99857.94
2023-04-30T12:40:32.025Z,99875.34
2023-04-30T12:43:03.209Z,99893.66
2023-04-30T12:45:45.519Z,99897.09
2023-04-30T12:48:13.929Z,99886.59
2023-04-30T12:50:41.270Z,99883.03
2023-04-30T12:53:08.785Z,99896.09
2023-04-30T12:55:37.904Z,99902.16
2023-04-30T12:58:10.592Z,99876.88
2023-04-30T13:00:51.750Z,99898.66
2023-04-30T13:03:21.103Z,99892.56
2023-04-30T13:05:52.674Z,99899.56
2023-04-30T13:08:23.785Z,99891.72
2023-04-30T13:10:51.962Z,99888.25
2023-04-30T13:13:21.360Z,99891.72
2023-04-30T13:15:48.702Z,99878.50
2023-04-30T13:18:16.592Z,99870.63
2023-04-30T13:20:44.023Z,99883.66
2023-04-30T13:23:14.104Z,99879.28
2023-04-30T13:25:44.663Z,99870.59
2023-04-30T13:28:11.736Z,99872.31
2023-04-30T13:30:39.281Z,99859.25
2023-04-30T13:33:06.512Z,99874.94
2023-04-30T13:35:33.604Z,99874.03
2023-04-30T13:38:00.793Z,99831.25
2023-04-30T13:40:27.964Z,99873.94
2023-04-30T13:42:55.044Z,99865.19
2023-04-30T13:45:22.242Z,99859.13
2023-04-30T13:47:49.294Z,99843.50
2023-04-30T13:50:16.364Z,99829.56
2023-04-30T13:52:43.489Z,99828.72
2023-04-30T13:55:10.541Z,99835.75
2023-04-30T13:57:37.909Z,99827.06
2023-04-30T14:00:06.358Z,99812.31
2023-04-30T14:02:35.621Z,99823.59
2023-04-30T14:05:06.744Z,99801.84
2023-04-30T14:07:34.375Z,99812.28
2023-04-30T14:10:01.389Z,99800.94
2023-04-30T14:12:30.864Z,99795.78
2023-04-30T14:14:58.066Z,99785.28
2023-04-30T14:17:27.088Z,99773.94
2023-04-30T14:19:55.052Z,99765.25
2023-04-30T14:22:22.316Z,99775.69
2023-04-30T14:24:49.300Z,99779.13
2023-04-30T14:27:16.319Z,99774.78
2023-04-30T14:29:43.296Z,99759.09
2023-04-30T14:32:10.587Z,99765.19
2023-04-30T14:34:37.709Z,99766.91
2023-04-30T14:37:05.411Z,99746.00
2023-04-30T14:39:32.633Z,99724.25
2023-04-30T14:41:59.829Z,99744.31
2023-04-30T14:44:27.049Z,99748.69
2023-04-30T14:46:54.098Z,99750.38
2023-04-30T14:49:21.152Z,99721.66
2023-04-30T14:51:48.472Z,99723.44
2023-04-30T14:54:15.515Z,99681.66
2023-04-30T14:56:42.738Z,99659.06
2023-04-30T14:59:09.826Z,99707.81
2023-04-30T15:01:36.914Z,99677.38
2023-04-30T15:04:04.158Z,99701.75
2023-04-30T15:06:31.680Z,99694.81
2023-04-30T15:08:58.751Z,99699.09
2023-04-30T15:11:25.980Z,99693.03
2023-04-30T15:13:55.369Z,99692.16
2023-04-30T15:16:22.621Z,99690.44
2023-04-30T15:18:49.778Z,99683.44
2023-04-30T15:21:16.805Z,99644.28
2023-04-30T15:23:44.356Z,99682.56
2023-04-30T15:26:11.468Z,99671.25
2023-04-30T15:28:38.622Z,99686.97
2023-04-30T15:31:06.554Z,99678.25
2023-04-30T15:33:39.593Z,99669.53
2023-04-30T15:36:06.857Z,99667.75
2023-04-30T15:38:34.703Z,99658.16
2023-04-30T15:41:01.843Z,99645.09
2023-04-30T15:43:30.047Z,99652.09
2023-04-30T15:45:57.281Z,99652.09
2023-04-30T15:48:24.398Z,99650.34
2023-04-30T15:50:51.426Z,99651.16
2023-04-30T15:53:18.478Z,99641.59
2023-04-30T15:55:46.814Z,99628.44
2023-04-30T15:58:13.905Z,99636.31
2023-04-30T16:00:41.577Z,99631.97
2023-04-30T16:03:08.875Z,99626.72
2023-04-30T16:05:38.887Z,99623.25
2023-04-30T16:08:09.139Z,99616.22
2023-04-30T16:10:37.044Z,99610.94
2023-04-30T16:13:04.375Z,99604.75
2023-04-30T16:15:32.128Z,99607.31
2023-04-30T16:17:59.262Z,99587.28
2023-04-30T16:20:27.453Z,99593.41
2023-04-30T16:22:55.690Z,99591.66
2023-04-30T16:25:22.813Z,99589.00
2023-04-30T16:27:50.493Z,99595.88
2023-04-30T16:30:17.890Z,99586.25
2023-04-30T16:32:44.979Z,99581.00
2023-04-30T16:35:12.105Z,99574.88
2023-04-30T16:37:39.183Z,99571.38
2023-04-30T16:40:07.740Z,99567.00
2023-04-30T16:42:35.200Z,99562.69
2023-04-30T16:45:02.493Z,99543.53
2023-04-30T16:47:33.469Z,99528.72
2023-04-30T16:50:00.754Z,99512.06
2023-04-30T16:52:28.576Z,99530.34
2023-04-30T16:54:55.682Z,99526.78
2023-04-30T16:57:25.244Z,99498.78
2023-04-30T16:59:52.937Z,99507.41
2023-04-30T17:02:20.279Z,99526.44
2023-04-30T17:04:47.320Z,99528.03
2023-04-30T17:07:14.679Z,99536.63
2023-04-30T17:09:42.280Z,99537.50
2023-04-30T17:12:09.267Z,99535.75
2023-04-30T17:14:36.304Z,99537.41
2023-04-30T17:17:03.533Z,99532.25
2023-04-30T17:19:30.527Z,99533.97
2023-04-30T17:21:57.596Z,99536.63
2023-04-30T17:24:25.084Z,99482.69
2023-04-30T17:26:52.535Z,99530.59
2023-04-30T17:29:23.716Z,99526.25
2023-04-30T17:31:50.912Z,99537.50
2023-04-30T17:34:18.068Z,99524.47
2023-04-30T17:36:45.386Z,99532.25
2023-04-30T17:39:12.791Z,99527.84
2023-04-30T17:41:39.981Z,99527.72
2023-04-30T17:44:07.118Z,99524.06
2023-04-30T17:46:34.573Z,99502.31
2023-04-30T17:49:03.639Z,99525.72
2023-04-30T17:51:31.757Z,99505.72
2023-04-30T17:54:01.782Z,99444.66
2023-04-30T17:56:32.404Z,99522.19
2023-04-30T17:59:00.195Z,99515.22
2023-04-30T18:01:27.768Z,99458.63
2023-04-30T18:03:55.500Z,99501.31
2023-04-30T18:06:22.729Z,99501.34
2023-04-30T18:08:49.832Z,99498.75
2023-04-30T18:11:16.879Z,99496.13
2023-04-30T18:13:44.978Z,99495.19
2023-04-30T18:16:14.204Z,99481.34
2023-04-30T18:18:41.585Z,99483.97
2023-04-30T18:21:08.971Z,99483.97
2023-04-30T18:23:36.867Z,99476.16
2023-04-30T18:26:04.174Z,99478.69
2023-04-30T18:28:31.559Z,99469.94
2023-04-30T18:30:58.738Z,99456.88
2023-04-30T18:33:26.218Z,99469.06
2023-04-30T18:35:54.799Z,99462.09
2023-04-30T18:38:22.056Z,99463.81
2023-04-30T18:40:54.705Z,99445.38
2023-04-30T18:43:25.244Z,99461.88
2023-04-30T18:45:52.732Z,99431.44
2023-04-30T18:48:22.963Z,99455.91
2023-04-30T18:50:50.255Z,99448.88
2023-04-30T18:53:18.255Z,99447.94
2023-04-30T18:55:45.745Z,99460.09
2023-04-30T18:58:13.032Z,99440.97
2023-04-30T19:00:42.992Z,99456.66
2023-04-30T19:03:10.726Z,99443.63
2023-04-30T19:05:37.964Z,99430.69
2023-04-30T19:08:05.074Z,99442.91
2023-04-30T19:10:33.957Z,99433.41
2023-04-30T19:13:01.749Z,99429.03
2023-04-30T19:15:30.110Z,99421.19
2023-04-30T19:17:57.716Z,99422.94
2023-04-30T19:20:25.007Z,99394.25
2023-04-30T19:22:52.200Z,99409.03
2023-04-30T19:25:19.367Z,99381.22
2023-04-30T19:27:47.686Z,99399.56
2023-04-30T19:30:15.175Z,99397.81
2023-04-30T19:32:42.354Z,99397.03
2023-04-30T19:35:09.697Z,99373.59
2023-04-30T19:37:37.606Z,99342.38
2023-04-30T19:40:10.616Z,99332.03
2023-04-30T19:42:39.342Z,99368.44
2023-04-30T19:45:08.123Z,99364.16
2023-04-30T19:47:36.330Z,99351.88
2023-04-30T19:50:03.631Z,99361.47
2023-04-30T19:52:32.208Z,99343.25
2023-04-30T19:54:59.750Z,99356.28
2023-04-30T19:57:28.205Z,99351.03
2023-04-30T19:59:55.590Z,99349.28
2023-04-30T20:02:22.792Z,99337.09
2023-04-30T20:04:49.839Z,99297.00
2023-04-30T20:07:18.841Z,99338.84
2023-04-30T20:09:46.185Z,99337.97
2023-04-30T20:12:13.509Z,99331.16
2023-04-30T20:14:40.532Z,99329.44
2023-04-30T20:17:07.735Z,99297.31
2023-04-30T20:19:34.770Z,99327.72
2023-04-30T20:22:02.999Z,99310.34
2023-04-30T20:24:29.990Z,99280.84
2023-04-30T20:26:56.993Z,99303.59
2023-04-30T20:29:24.118Z,99298.34
2023-04-30T20:31:52.040Z,99290.59
2023-04-30T20:34:20.347Z,99259.25
2023-04-30T20:36:47.393Z,99256.69
2023-04-30T20:39:14.692Z,99279.28
2023-04-30T20:41:42.240Z,99278.44
2023-04-30T20:44:09.938Z,99267.16
2023-04-30T20:46:38.378Z,99267.31
2023-04-30T20:49:05.491Z,99253.34
2023-04-30T20:51:32.859Z,99253.41
2023-04-30T20:53:59.917Z,99261.19
2023-04-30T20:56:27.200Z,99258.59
2023-04-30T20:58:54.690Z,99233.41
2023-04-30T21:01:22.163Z,99248.34
2023-04-30T21:03:49.488Z,99243.19
2023-04-30T21:06:17.635Z,99246.72
2023-04-30T21:08:44.770Z,99244.09
2023-04-30T21:11:14.266Z,99233.69
2023-04-30T21:13:41.924Z,99231.09
2023-04-30T21:16:09.619Z,99225.03
2023-04-30T21:18:36.717Z,99208.59
2023-04-30T21:21:05.100Z,99138.31
2023-04-30T21:23:32.803Z,99200.81
2023-04-30T21:26:00.051Z,99193.81
2023-04-30T21:28:27.404Z,99202.47
2023-04-30T21:30:54.841Z,99209.47
2023-04-30T21:33:22.128Z,99208.59
2023-04-30T21:35:49.174Z,99199.94
2023-04-30T21:38:16.512Z,99210.31
2023-04-30T21:40:43.656Z,99220.78
2023-04-30T21:43:10.679Z,99203.50
2023-04-30T21:45:37.676Z,99191.41
2023-04-30T21:48:05.692Z,99167.16
2023-04-30T21:50:33.823Z,99168.94
2023-04-30T21:53:01.576Z,99174.94
2023-04-30T21:55:28.836Z,99185.28
2023-04-30T21:57:55.912Z,99202.53
2023-04-30T22:00:23.051Z,99216.31
2023-04-30T22:02:51.050Z,99205.06
2023-04-30T22:05:19.758Z,99202.47
2023-04-30T22:07:47.609Z,99205.97
2023-04-30T22:10:17.477Z,99193.81
2023-04-30T22:12:47.463Z,99207.75
2023-04-30T22:15:15.560Z,99184.34
2023-04-30T22:17:42.954Z,99196.53
2023-04-30T22:20:10.321Z,99124.53
2023-04-30T22:22:37.646Z,99194.88
2023-04-30T22:25:05.076Z,99200.03
2023-04-30T22:27:32.603Z,99142.69
2023-04-30T22:29:59.752Z,99196.59
2023-04-30T22:32:27.756Z,99201.75
2023-04-30T22:34:54.832Z,99203.50
2023-04-30T22:37:21.906Z,99194.88
2023-04-30T22:39:48.998Z,99178.41
2023-04-30T22:42:16.940Z,99168.91
2023-04-30T22:44:45.485Z,99175.00
2023-04-30T22:47:13.081Z,99180.19
2023-04-30T22:49:40.196Z,99194.13
2023-04-30T22:52:07.402Z,99184.66
2023-04-30T22:54:35.752Z,99179.44
2023-04-30T22:57:03.171Z,99174.25
2023-04-30T22:59:30.341Z,99175.13
2023-04-30T23:01:57.440Z,99162.19
2023-04-30T23:04:24.763Z,99166.53
2023-04-30T23:06:52.693Z,99169.94
2023-04-30T23:09:19.767Z,99166.50
2023-04-30T23:11:47.765Z,99171.66
2023-04-30T23:14:14.802Z,99163.88
2023-04-30T23:16:42.904Z,99161.22
2023-04-30T23:19:10.805Z,99156.06
2023-04-30T23:21:37.928Z,99138.72
2023-04-30T23:24:05.385Z,99110.13
2023-04-30T23:26:32.512Z,99143.19
2023-04-30T23:28:59.549Z,99131.97
2023-04-30T23:31:27.412Z,99131.16
2023-04-30T23:33:54.718Z,99130.25
2023-04-30T23:36:22.092Z,99142.34
2023-04-30T23:38:49.637Z,99126.81
2023-04-30T23:41:16.835Z,99115.53
2023-04-30T23:43:43.925Z,99120.69
2023-04-30T23:46:11.019Z,99102.34
2023-04-30T23:48:38.135Z,99131.81
2023-04-30T23:51:05.908Z,99110.16
2023-04-30T23:53:32.885Z,99124.06
2023-04-30T23:56:00.213Z,99097.16
2023-04-30T23:58:31.367Z,99092.91
